Time;durP1;ratioP1;P1;durP2;ratioP2;P2;SDS_P1;SDS_P2;PMS_P1;PMS_P2;Temp;Humidity;BMP_temperature;BMP_pressure;BME280_temperature;BME280_humidity;BME280_pressure;Samples;Min_cycle;Max_cycle;Signal;HPM_P1;HPM_P2
2023/11/09 00:00:37;;;;;;;11.50;4.45;;;;;;;8.35;100.00;100161.41;5042814;28;20029;-72
2023/11/09 00:03:04;;;;;;;12.55;4.13;;;;;;;8.38;100.00;100153.50;5045086;28;20112;-73
2023/11/09 00:05:29;;;;;;;11.68;4.30;;;;;;;8.36;100.00;100157.91;5044892;28;20082;-74
2023/11/09 00:07:55;;;;;;;13.05;4.63;;;;;;;8.34;100.00;100144.75;5043839;28;20033;-75
2023/11/09 00:10:20;;;;;;;12.55;4.53;;;;;;;8.31;100.00;100136.81;5046176;28;20032;-72
2023/11/09 00:12:48;;;;;;;14.20;4.43;;;;;;;8.35;100.00;100132.44;5043073;28;20484;-73
2023/11/09 00:15:13;;;;;;;12.82;4.70;;;;;;;8.34;100.00;100138.56;5038900;28;20061;-73
2023/11/09 00:17:39;;;;;;;13.27;4.47;;;;;;;8.31;100.00;100121.00;5045778;28;20435;-75
2023/11/09 00:20:07;;;;;;;10.77;4.10;;;;;;;8.34;100.00;100128.94;5043936;28;20029;-73
2023/11/09 00:22:33;;;;;;;10.68;4.07;;;;;;;8.38;100.00;100128.03;5045047;28;20083;-73
2023/11/09 00:24:58;;;;;;;11.18;4.20;;;;;;;8.39;100.00;100105.22;5044495;28;20032;-71
2023/11/09 00:27:24;;;;;;;10.27;4.18;;;;;;;8.35;100.00;100111.38;5043508;28;20037;-70
2023/11/09 00:29:49;;;;;;;11.38;4.13;;;;;;;8.34;100.00;100115.78;5027911;28;20025;-70
2023/11/09 00:32:17;;;;;;;11.73;4.40;;;;;;;8.36;100.00;100114.00;5041003;28;20037;-71
2023/11/09 00:34:47;;;;;;;9.85;4.20;;;;;;;8.37;100.00;100104.34;5037529;28;20034;-70
2023/11/09 00:37:13;;;;;;;12.63;4.53;;;;;;;8.36;100.00;100108.72;5046161;28;20053;-70
2023/11/09 00:39:38;;;;;;;11.23;4.40;;;;;;;8.37;100.00;100099.97;5042920;28;20060;-70
2023/11/09 00:42:07;;;;;;;13.18;4.63;;;;;;;8.33;100.00;100106.09;5044675;28;20041;-70
2023/11/09 00:44:33;;;;;;;14.77;4.88;;;;;;;8.37;100.00;100094.69;5043566;28;20029;-71
2023/11/09 00:46:59;;;;;;;13.35;4.72;;;;;;;8.35;100.00;100085.91;5043862;28;20030;-71
2023/11/09 00:49:25;;;;;;;13.35;5.03;;;;;;;8.36;100.00;100087.66;5044759;28;20610;-71
2023/11/09 00:51:51;;;;;;;16.02;5.30;;;;;;;8.34;100.00;100086.81;5042585;28;20038;-70
2023/11/09 00:54:16;;;;;;;15.30;5.30;;;;;;;8.36;100.00;100077.13;5045587;28;20029;-70
2023/11/09 00:56:42;;;;;;;12.48;4.80;;;;;;;8.40;100.00;100074.50;5041077;28;20064;-70
2023/11/09 00:59:07;;;;;;;15.48;5.20;;;;;;;8.37;100.00;100073.63;5044675;28;20036;-69
2023/11/09 01:01:33;;;;;;;14.77;5.50;;;;;;;8.33;100.00;100063.97;5043172;28;20510;-71
2023/11/09 01:03:58;;;;;;;15.85;5.85;;;;;;;8.35;100.00;100075.38;5043350;28;20124;-70
2023/11/09 01:06:23;;;;;;;15.10;5.80;;;;;;;8.36;100.00;100058.69;5044522;28;20491;-69
2023/11/09 01:08:49;;;;;;;15.45;5.55;;;;;;;8.38;100.00;100064.84;5042389;28;20469;-70
2023/11/09 01:11:24;;;;;;;14.27;5.40;;;;;;;8.38;100.00;100056.94;5045099;28;20032;-69
2023/11/09 01:13:49;;;;;;;16.38;5.60;;;;;;;8.38;100.00;100054.28;5038699;28;20032;-70
2023/11/09 01:16:15;;;;;;;14.57;5.45;;;;;;;8.41;100.00;100052.56;5045133;28;20539;-70
2023/11/09 01:18:41;;;;;;;16.35;5.80;;;;;;;8.36;100.00;100048.16;5042103;28;20033;-70
2023/11/09 01:21:06;;;;;;;16.27;5.85;;;;;;;8.35;100.00;100046.41;5043498;28;20061;-70
2023/11/09 01:23:32;;;;;;;14.95;5.72;;;;;;;8.35;100.00;100054.28;5043267;28;20029;-69
2023/11/09 01:25:57;;;;;;;15.88;5.70;;;;;;;8.38;100.00;100049.03;5042826;28;20030;-70
2023/11/09 01:28:22;;;;;;;15.82;6.00;;;;;;;8.40;100.00;100042.88;5044259;28;20078;-70
2023/11/09 01:30:48;;;;;;;14.57;5.65;;;;;;;8.38;100.00;100042.91;5041652;28;20040;-69
2023/11/09 01:33:13;;;;;;;17.13;6.10;;;;;;;8.37;100.00;100039.41;5037231;28;20042;-70
2023/11/09 01:35:39;;;;;;;16.40;5.78;;;;;;;8.40;100.00;100040.25;5044095;28;20025;-70
2023/11/09 01:38:04;;;;;;;14.68;5.40;;;;;;;8.42;100.00;100043.75;5042696;28;20033;-69
2023/11/09 01:40:30;;;;;;;16.02;5.88;;;;;;;8.38;100.00;100033.22;5041500;28;20387;-70
2023/11/09 01:42:55;;;;;;;14.38;5.30;;;;;;;8.40;100.00;100035.00;5043699;28;20532;-70
2023/11/09 01:45:21;;;;;;;15.73;5.55;;;;;;;8.40;100.00;100025.31;5041581;28;20097;-76
2023/11/09 01:47:47;;;;;;;13.90;5.05;;;;;;;8.44;100.00;100026.22;5044577;28;20114;-76
2023/11/09 01:50:15;;;;;;;14.13;5.28;;;;;;;8.42;100.00;100015.69;5041479;28;20358;-76
2023/11/09 01:52:40;;;;;;;13.82;5.03;;;;;;;8.48;100.00;100017.47;5044454;28;20426;-77
2023/11/09 01:55:07;;;;;;;14.30;5.07;;;;;;;8.45;100.00;100001.69;5042067;28;20025;-78
2023/11/09 01:57:33;;;;;;;15.15;5.30;;;;;;;8.48;100.00;100006.94;5042835;28;20043;-76
2023/11/09 02:00:00;;;;;;;13.68;4.97;;;;;;;8.50;100.00;100010.44;5043106;28;20082;-77
2023/11/09 02:02:25;;;;;;;14.98;5.35;;;;;;;8.50;100.00;99994.63;5041830;28;20423;-74
2023/11/09 02:04:52;;;;;;;14.88;4.95;;;;;;;8.53;100.00;99997.25;5043876;28;20035;-78
2023/11/09 02:07:19;;;;;;;15.38;5.20;;;;;;;8.51;100.00;99991.13;5041224;28;20048;-75
2023/11/09 02:09:45;;;;;;;15.23;5.60;;;;;;;8.52;100.00;99996.41;5036885;28;20043;-73
2023/11/09 02:12:11;;;;;;;15.55;5.45;;;;;;;8.52;100.00;100001.66;5042528;28;20116;-77
2023/11/09 02:14:36;;;;;;;16.92;5.70;;;;;;;8.54;100.00;99985.84;5041890;28;20135;-73
2023/11/09 02:17:04;;;;;;;16.67;5.90;;;;;;;8.53;100.00;99987.63;5042554;28;20029;-76
2023/11/09 02:19:30;;;;;;;15.70;5.60;;;;;;;8.55;100.00;99992.88;5042648;28;20484;-75
2023/11/09 02:21:56;;;;;;;16.88;5.88;;;;;;;8.56;100.00;99989.34;5040476;28;20053;-78
2023/11/09 02:24:22;;;;;;;17.75;6.25;;;;;;;8.55;100.00;100004.28;5043638;28;20102;-74
2023/11/09 02:26:48;;;;;;;17.52;6.43;;;;;;;8.62;100.00;99984.09;5040619;28;20480;-73
2023/11/09 02:29:15;;;;;;;17.20;6.60;;;;;;;8.61;100.00;99986.75;5036761;28;20067;-78
2023/11/09 02:31:41;;;;;;;17.58;6.40;;;;;;;8.63;100.00;99974.44;5044087;28;20029;-76
2023/11/09 02:34:11;;;;;;;18.05;6.80;;;;;;;8.62;100.00;99984.09;5045726;28;20045;-75
2023/11/09 02:36:36;;;;;;;18.02;7.05;;;;;;;8.61;100.00;99977.06;5047193;28;20032;-78
2023/11/09 02:39:02;;;;;;;19.40;7.15;;;;;;;8.62;100.00;99968.28;5046302;28;20033;-77
2023/11/09 02:41:28;;;;;;;18.50;6.95;;;;;;;8.64;100.00;99981.47;5045770;28;20029;-71
2023/11/09 02:43:53;;;;;;;17.17;6.63;;;;;;;8.70;100.00;99968.28;5047620;28;20033;-70
2023/11/09 02:46:18;;;;;;;17.95;6.65;;;;;;;8.69;100.00;99966.50;5044553;28;20036;-70
2023/11/09 02:48:46;;;;;;;18.77;7.32;;;;;;;8.71;100.00;99956.84;5048323;28;20028;-70
2023/11/09 02:51:12;;;;;;;19.00;7.13;;;;;;;8.71;100.00;99967.41;5044725;28;20021;-70
2023/11/09 02:53:39;;;;;;;18.55;7.05;;;;;;;8.67;100.00;99955.97;5046905;28;20437;-70
2023/11/09 02:56:07;;;;;;;19.55;7.40;;;;;;;8.67;100.00;99963.88;5045857;28;20462;-70
2023/11/09 02:58:35;;;;;;;19.27;7.90;;;;;;;8.69;100.00;99962.13;5046225;28;20034;-71
2023/11/09 03:01:01;;;;;;;18.83;7.40;;;;;;;8.70;100.00;99955.97;5045997;28;20527;-71
2023/11/09 03:03:27;;;;;;;18.52;7.50;;;;;;;8.73;100.00;99960.34;5045331;28;20021;-70
2023/11/09 03:05:54;;;;;;;19.60;7.60;;;;;;;8.75;100.00;99953.31;5047185;28;20472;-70
2023/11/09 03:08:19;;;;;;;18.75;7.55;;;;;;;8.73;100.00;99945.41;5044166;28;20029;-70
2023/11/09 03:10:45;;;;;;;18.98;7.63;;;;;;;8.73;100.00;99953.31;5040262;28;20392;-70
2023/11/09 03:13:11;;;;;;;19.45;7.32;;;;;;;8.76;100.00;99954.22;5046830;28;20037;-69
2023/11/09 03:15:37;;;;;;;19.45;7.80;;;;;;;8.75;100.00;99945.41;5045063;28;20056;-70
2023/11/09 03:18:02;;;;;;;19.10;7.53;;;;;;;8.76;100.00;99938.41;5045875;28;20451;-70
2023/11/09 03:20:28;;;;;;;18.42;7.50;;;;;;;8.77;100.00;99948.06;5046107;28;20108;-70
2023/11/09 03:22:53;;;;;;;19.58;7.60;;;;;;;8.77;100.00;99945.44;5044375;28;20029;-70
2023/11/09 03:25:18;;;;;;;18.23;7.25;;;;;;;8.80;100.00;99953.31;5047334;28;20033;-70
2023/11/09 03:27:44;;;;;;;19.13;7.40;;;;;;;8.79;100.00;99935.75;5043765;28;20116;-70
2023/11/09 03:30:10;;;;;;;18.23;7.47;;;;;;;8.84;100.00;99944.50;5046313;28;20060;-71
2023/11/09 03:32:36;;;;;;;19.90;7.10;;;;;;;8.87;100.00;99941.88;5044787;28;20492;-71
2023/11/09 03:35:02;;;;;;;19.63;7.75;;;;;;;8.81;100.00;99936.59;5045216;28;20075;-71
2023/11/09 03:37:27;;;;;;;18.30;7.20;;;;;;;8.84;100.00;99932.22;5045885;28;20082;-71
2023/11/09 03:39:55;;;;;;;19.20;7.32;;;;;;;8.84;100.00;99941.88;5044204;28;20100;-70
2023/11/09 03:42:20;;;;;;;18.48;7.50;;;;;;;8.85;100.00;99930.44;5046218;28;20017;-71
2023/11/09 03:44:47;;;;;;;18.90;7.40;;;;;;;8.88;100.00;99933.97;5043313;28;20396;-71
2023/11/09 03:47:12;;;;;;;18.80;7.68;;;;;;;8.86;100.00;99943.63;5046708;28;20029;-71
2023/11/09 03:49:40;;;;;;;19.25;7.38;;;;;;;8.93;100.00;99954.13;5044231;28;20032;-71
2023/11/09 03:52:06;;;;;;;18.75;7.40;;;;;;;8.90;100.00;99948.00;5045689;28;20083;-71
2023/11/09 03:54:31;;;;;;;19.88;7.57;;;;;;;8.89;100.00;99948.88;5043981;28;20033;-71
2023/11/09 03:56:56;;;;;;;19.75;7.53;;;;;;;8.93;100.00;99931.31;5044102;28;20060;-72
2023/11/09 03:59:21;;;;;;;19.67;7.95;;;;;;;8.95;100.00;99940.09;5046490;28;20061;-71
2023/11/09 04:01:47;;;;;;;19.42;7.50;;;;;;;8.98;100.00;99942.69;5043074;28;20436;-71
2023/11/09 04:04:14;;;;;;;19.40;7.85;;;;;;;8.95;100.00;99945.34;5046095;28;20488;-71
2023/11/09 04:06:40;;;;;;;20.20;8.75;;;;;;;8.96;100.00;99941.84;5043923;28;20037;-71
2023/11/09 04:09:06;;;;;;;20.10;9.10;;;;;;;8.94;100.00;99943.63;5045073;28;20025;-71
2023/11/09 04:11:33;;;;;;;19.73;8.70;;;;;;;8.96;100.00;99938.34;5043558;28;20031;-77
2023/11/09 04:13:59;;;;;;;20.10;8.93;;;;;;;8.99;100.00;99938.31;5044184;28;20112;-74
2023/11/09 04:16:24;;;;;;;21.42;9.48;;;;;;;8.98;100.00;99947.97;5045655;28;20449;-73
2023/11/09 04:18:50;;;;;;;21.08;10.15;;;;;;;9.00;100.00;99937.41;5042870;28;20481;-70
2023/11/09 04:21:15;;;;;;;20.75;9.80;;;;;;;9.01;100.00;99934.81;5038872;28;20365;-74
2023/11/09 04:23:41;;;;;;;20.33;9.70;;;;;;;8.99;100.00;99933.06;5045473;28;20024;-70
2023/11/09 04:26:09;;;;;;;22.33;10.00;;;;;;;9.02;100.00;99939.19;5043641;28;20040;-73
2023/11/09 04:28:37;;;;;;;20.52;9.68;;;;;;;9.05;100.00;99947.06;5044737;28;20037;-73
2023/11/09 04:31:07;;;;;;;21.70;10.07;;;;;;;9.01;100.00;99940.09;5044262;28;20082;-74
2023/11/09 04:33:32;;;;;;;21.00;10.05;;;;;;;9.02;100.00;99941.81;5042771;28;20512;-70
2023/11/09 04:35:59;;;;;;;21.60;10.48;;;;;;;9.03;100.00;99951.50;5045011;28;20029;-75
2023/11/09 04:38:24;;;;;;;23.08;10.73;;;;;;;9.03;100.00;99943.56;5043091;28;20025;-74
2023/11/09 04:41:03;;;;;;;22.92;11.45;;;;;;;9.05;100.00;99951.47;5046114;28;20032;-73
2023/11/09 04:43:29;;;;;;;21.88;11.63;;;;;;;9.04;100.00;99955.88;5041226;28;20021;-74
2023/11/09 04:46:01;;;;;;;22.95;11.18;;;;;;;9.02;100.00;99949.72;5045318;28;20494;-72
2023/11/09 04:48:31;;;;;;;22.92;11.65;;;;;;;9.03;100.00;99954.13;5041772;28;20392;-72
2023/11/09 04:51:06;;;;;;;22.58;12.35;;;;;;;9.03;100.00;99959.41;5044664;28;20450;-71
2023/11/09 04:53:39;;;;;;;23.17;11.82;;;;;;;9.03;100.00;99950.63;5043894;28;20083;-73
2023/11/09 04:56:19;;;;;;;25.65;13.43;;;;;;;9.01;100.00;99961.19;5042909;28;20045;-76
2023/11/09 04:58:47;;;;;;;26.50;13.65;;;;;;;9.01;100.00;99960.28;5045513;28;20053;-75
2023/11/09 05:06:55;;;;;;;27.52;15.15;;;;;;;8.98;100.00;99966.44;5042677;28;20108;-73
2023/11/09 05:09:23;;;;;;;28.30;14.93;;;;;;;8.95;100.00;99963.81;5038589;28;20029;-73
2023/11/09 05:11:49;;;;;;;28.00;14.85;;;;;;;8.95;100.00;99965.56;5038115;28;20029;-76
2023/11/09 05:14:14;;;;;;;28.08;14.93;;;;;;;8.93;100.00;99969.97;5045127;28;20071;-75
2023/11/09 05:16:40;;;;;;;27.77;14.32;;;;;;;8.89;100.00;99979.66;5042441;28;20021;-69
2023/11/09 05:19:05;;;;;;;28.05;14.90;;;;;;;8.83;100.00;99964.72;5043803;28;20034;-71
2023/11/09 05:21:31;;;;;;;27.77;14.35;;;;;;;8.80;100.00;99967.38;5043728;28;20553;-69
2023/11/09 05:23:56;;;;;;;28.83;15.70;;;;;;;8.78;100.00;99984.06;5042156;28;20036;-70
2023/11/09 05:26:25;;;;;;;29.42;15.07;;;;;;;8.77;100.00;99984.97;5044818;28;20033;-75
2023/11/09 05:28:51;;;;;;;29.25;15.30;;;;;;;8.75;100.00;99977.03;5041490;28;20148;-72
2023/11/09 05:31:17;;;;;;;28.52;15.02;;;;;;;8.76;100.00;99980.56;5037452;28;20108;-73
2023/11/09 05:33:44;;;;;;;28.73;14.93;;;;;;;8.69;100.00;99975.31;5044490;28;20068;-72
2023/11/09 05:36:10;;;;;;;28.10;13.73;;;;;;;8.64;100.00;99976.19;5042176;28;20017;-75
2023/11/09 05:38:36;;;;;;;27.33;13.40;;;;;;;8.58;100.00;99979.72;5043241;28;20041;-71
2023/11/09 05:41:01;;;;;;;27.17;12.55;;;;;;;8.54;100.00;99983.22;5043330;28;20396;-72
2023/11/09 05:43:29;;;;;;;27.52;12.50;;;;;;;8.50;100.00;99974.47;5041994;28;20116;-74
2023/11/09 05:45:55;;;;;;;27.63;12.40;;;;;;;8.47;100.00;99974.44;5043890;28;20059;-70
2023/11/09 05:48:21;;;;;;;29.38;13.63;;;;;;;8.45;100.00;99980.59;5041383;28;20466;-72
2023/11/09 05:50:46;;;;;;;29.23;13.63;;;;;;;8.45;100.00;99977.97;5037013;28;20413;-69
2023/11/09 05:53:13;;;;;;;30.08;14.63;;;;;;;8.45;100.00;99986.75;5043872;28;20103;-71
2023/11/09 05:55:38;;;;;;;29.83;15.15;;;;;;;8.45;100.00;99985.88;5042289;28;20479;-72
2023/11/09 05:58:04;;;;;;;31.88;15.55;;;;;;;8.46;100.00;99992.88;5042703;28;20037;-72
2023/11/09 06:00:30;;;;;;;31.83;15.98;;;;;;;8.45;100.00;99996.41;5043230;28;20075;-69
2023/11/09 06:02:57;;;;;;;33.10;17.05;;;;;;;8.47;100.00;100006.03;5041669;28;20030;-74
2023/11/09 06:05:26;;;;;;;34.80;17.42;;;;;;;8.47;100.00;100005.19;5043836;28;20086;-68
2023/11/09 06:07:56;;;;;;;37.83;20.02;;;;;;;8.47;100.00;100018.34;5040817;28;20472;-74
2023/11/09 06:10:22;;;;;;;37.90;19.20;;;;;;;8.45;100.00;100012.22;5044329;28;20476;-71
2023/11/09 06:12:47;;;;;;;40.53;21.30;;;;;;;8.44;100.00;100016.59;5040820;28;20104;-70
2023/11/09 06:15:15;;;;;;;41.30;22.20;;;;;;;8.42;100.00;100012.16;5043585;28;20021;-70
2023/11/09 06:17:43;;;;;;;42.17;21.83;;;;;;;8.40;100.00;100016.56;5041785;28;20032;-74
2023/11/09 06:20:20;;;;;;;45.00;22.60;;;;;;;8.37;100.00;100010.44;5042984;28;20057;-72
2023/11/09 06:22:45;;;;;;;44.20;24.30;;;;;;;8.34;100.00;100020.97;5040834;28;20441;-69
2023/11/09 06:25:12;;;;;;;46.38;24.80;;;;;;;8.36;100.00;100023.59;5043191;28;20076;-71
2023/11/09 06:27:38;;;;;;;44.83;24.40;;;;;;;8.32;100.00;100030.59;5041962;28;20115;-70
2023/11/09 06:30:04;;;;;;;46.90;24.33;;;;;;;8.33;100.00;100028.81;5042159;28;20053;-71
2023/11/09 06:32:30;;;;;;;45.53;23.65;;;;;;;8.28;100.00;100026.19;5042678;28;20403;-70
2023/11/09 06:34:57;;;;;;;48.25;24.50;;;;;;;8.28;100.00;100026.19;5041414;28;20099;-70
2023/11/09 06:37:22;;;;;;;46.63;23.85;;;;;;;8.27;100.00;100040.25;5043907;28;20380;-70
2023/11/09 06:39:49;;;;;;;47.30;23.92;;;;;;;8.25;100.00;100030.59;5040587;28;20120;-71
2023/11/09 06:42:17;;;;;;;45.97;22.95;;;;;;;8.26;100.00;100045.53;5043649;28;20546;-71
2023/11/09 06:44:45;;;;;;;45.80;22.33;;;;;;;8.24;100.00;100047.25;5040920;28;20514;-71
2023/11/09 06:47:11;;;;;;;45.78;22.38;;;;;;;8.21;100.00;100050.75;5043263;28;20529;-70
2023/11/09 06:49:37;;;;;;;46.03;22.70;;;;;;;8.18;100.00;100045.50;5041815;28;20088;-68
2023/11/09 06:52:04;;;;;;;48.55;23.45;;;;;;;8.15;100.00;100054.25;5041704;28;20477;-70
2023/11/09 06:54:30;;;;;;;46.20;23.17;;;;;;;8.13;100.00;100058.66;5042659;28;20495;-70
2023/11/09 06:56:55;;;;;;;45.30;22.50;;;;;;;8.09;100.00;100058.66;5040941;28;20068;-71
2023/11/09 06:59:22;;;;;;;49.53;23.63;;;;;;;8.06;100.00;100054.25;5043803;28;20132;-70
2023/11/09 07:01:47;;;;;;;47.33;22.95;;;;;;;8.03;100.00;100056.88;5036338;28;20110;-72
2023/11/09 07:04:13;;;;;;;45.67;22.77;;;;;;;7.99;100.00;100053.38;5043329;28;20029;-69
2023/11/09 07:06:40;;;;;;;45.85;22.77;;;;;;;7.98;100.00;100059.50;5041499;28;20499;-69
2023/11/09 07:09:06;;;;;;;46.80;24.05;;;;;;;7.96;100.00;100060.38;5042351;28;20026;-70
2023/11/09 07:11:31;;;;;;;43.63;22.35;;;;;;;7.94;100.00;100062.13;5041134;28;20028;-71
2023/11/09 07:13:56;;;;;;;44.42;22.50;;;;;;;7.86;100.00;100070.00;5040758;28;20033;-71
2023/11/09 07:16:23;;;;;;;46.58;22.67;;;;;;;7.82;100.00;100061.22;5043903;28;20472;-71
2023/11/09 07:18:49;;;;;;;42.65;22.25;;;;;;;7.79;100.00;100074.38;5038566;28;20492;-70
2023/11/09 07:21:14;;;;;;;42.33;21.23;;;;;;;7.81;100.00;100077.00;5046778;28;20033;-70
2023/11/09 07:23:40;;;;;;;43.58;21.83;;;;;;;7.79;100.00;100073.47;5044895;28;20032;-71
2023/11/09 07:26:05;;;;;;;41.17;21.33;;;;;;;7.80;100.00;100083.13;5045304;28;20037;-70
2023/11/09 07:28:31;;;;;;;41.88;21.75;;;;;;;7.76;100.00;100091.88;5046098;28;20391;-70
2023/11/09 07:30:59;;;;;;;43.63;22.75;;;;;;;7.78;100.00;100085.75;5044317;28;20067;-70
2023/11/09 07:33:24;;;;;;;43.00;22.23;;;;;;;7.71;100.00;100086.63;5045226;28;20113;-71
2023/11/09 07:35:49;;;;;;;41.03;22.60;;;;;;;7.69;100.00;100085.75;5043554;28;20112;-71
2023/11/09 07:38:15;;;;;;;42.78;22.38;;;;;;;7.68;100.00;100086.59;5046562;28;20029;-68
2023/11/09 07:40:41;;;;;;;45.15;23.17;;;;;;;7.65;100.00;100095.34;5043997;28;20033;-71
2023/11/09 07:43:10;;;;;;;43.22;22.23;;;;;;;7.62;100.00;100097.09;5045036;28;20030;-70
2023/11/09 07:45:37;;;;;;;44.47;24.25;;;;;;;7.59;100.00;100092.69;5044848;28;20064;-70
2023/11/09 07:48:06;;;;;;;43.17;23.45;;;;;;;7.58;100.00;100098.81;5044510;28;20112;-70
2023/11/09 07:50:33;;;;;;;43.55;22.83;;;;;;;7.58;100.00;100095.31;5045289;28;20033;-71
2023/11/09 07:52:58;;;;;;;43.40;23.00;;;;;;;7.58;100.00;100100.59;5044039;28;20060;-70
2023/11/09 07:55:24;;;;;;;46.08;23.67;;;;;;;7.58;100.00;100096.19;5046073;28;20033;-71
2023/11/09 07:57:49;;;;;;;43.83;23.25;;;;;;;7.58;100.00;100093.56;5031874;28;20030;-70
2023/11/09 08:00:16;;;;;;;43.53;22.38;;;;;;;7.60;100.00;100101.47;5036812;28;20030;-71
2023/11/09 08:02:43;;;;;;;43.55;22.15;;;;;;;7.59;100.00;100097.97;5037472;28;20037;-72
2023/11/09 08:05:13;;;;;;;41.83;22.10;;;;;;;7.59;100.00;100097.97;5043047;28;20029;-71
2023/11/09 08:07:42;;;;;;;42.97;20.55;;;;;;;7.62;100.00;100097.97;5046513;28;20032;-73
2023/11/09 08:10:09;;;;;;;41.65;20.60;;;;;;;7.62;100.00;100097.09;5039877;28;20480;-72
2023/11/09 08:12:35;;;;;;;41.78;20.10;;;;;;;7.63;100.00;100105.00;5036504;28;20606;-71
2023/11/09 08:15:01;;;;;;;41.08;20.13;;;;;;;7.58;100.00;100104.09;5036851;28;20051;-77
2023/11/09 08:17:26;;;;;;;41.20;20.20;;;;;;;7.55;100.00;100104.06;5042790;28;20128;-76
2023/11/09 08:19:52;;;;;;;40.17;20.25;;;;;;;7.50;100.00;100118.97;5044554;28;20061;-74
2023/11/09 08:22:19;;;;;;;40.10;19.27;;;;;;;7.47;100.00;100111.03;5044835;28;20033;-76
2023/11/09 08:24:44;;;;;;;37.90;18.00;;;;;;;7.41;100.00;100111.00;5043444;28;20087;-77
2023/11/09 08:27:10;;;;;;;38.55;18.15;;;;;;;7.38;100.00;100113.63;5045906;28;20036;-76
2023/11/09 08:29:35;;;;;;;38.45;18.00;;;;;;;7.29;100.00;100102.19;5042646;28;20092;-77
2023/11/09 08:32:04;;;;;;;36.53;16.67;;;;;;;7.28;100.00;100115.31;5045324;28;20448;-76
2023/11/09 08:34:30;;;;;;;36.05;16.65;;;;;;;7.25;100.00;100107.41;5042967;28;20080;-76
2023/11/09 08:36:55;;;;;;;34.47;15.73;;;;;;;7.25;100.00;100110.94;5043654;28;20034;-76
2023/11/09 08:39:22;;;;;;;34.13;14.90;;;;;;;7.25;100.00;100112.66;5044021;28;20044;-76
2023/11/09 08:41:47;;;;;;;39.08;15.48;;;;;;;7.26;100.00;100110.03;5043534;28;20036;-77
2023/11/09 08:44:13;;;;;;;33.88;14.52;;;;;;;7.29;100.00;100114.44;5045196;28;20017;-77
2023/11/09 08:46:38;;;;;;;32.33;13.65;;;;;;;7.32;100.00;100114.47;5042245;28;20025;-76
2023/11/09 08:49:04;;;;;;;32.33;13.38;;;;;;;7.39;100.00;100125.91;5045779;28;20032;-76
2023/11/09 08:51:30;;;;;;;33.25;13.40;;;;;;;7.45;100.00;100124.19;5041537;28;20484;-70
2023/11/09 08:53:56;;;;;;;33.28;12.77;;;;;;;7.43;100.00;100125.06;5044442;28;20041;-71
2023/11/09 08:56:22;;;;;;;29.13;11.50;;;;;;;7.48;100.00;100111.06;5043871;28;20029;-71
2023/11/09 08:58:48;;;;;;;31.95;11.55;;;;;;;7.78;100.00;100109.44;5043349;28;20368;-70
2023/11/09 09:01:18;;;;;;;31.50;11.60;;;;;;;8.02;100.00;100108.66;5044760;28;20084;-71
2023/11/09 09:03:45;;;;;;;31.52;11.68;;;;;;;8.26;100.00;100109.59;5042520;28;20029;-73
2023/11/09 09:06:11;;;;;;;31.10;10.60;;;;;;;8.27;100.00;100116.63;5045328;28;20047;-72
2023/11/09 09:08:38;;;;;;;28.88;10.35;;;;;;;8.23;100.00;100117.50;5041895;28;20040;-70
2023/11/09 09:11:05;;;;;;;28.40;10.60;;;;;;;8.33;100.00;100114.00;5036598;28;20056;-70
2023/11/09 09:13:31;;;;;;;29.90;10.50;;;;;;;8.38;100.00;100116.63;5044992;28;20491;-70
2023/11/09 09:15:56;;;;;;;27.58;10.52;;;;;;;8.22;100.00;100115.72;5043117;28;20025;-70
2023/11/09 09:18:23;;;;;;;26.27;9.93;;;;;;;8.06;100.00;100103.41;5043582;28;20048;-70
2023/11/09 09:20:49;;;;;;;29.17;10.55;;;;;;;8.24;100.00;100107.81;5043863;28;20480;-70
2023/11/09 09:23:16;;;;;;;29.20;11.07;;;;;;;8.73;100.00;100107.91;5042320;28;20041;-70
2023/11/09 09:25:42;;;;;;;27.60;10.25;;;;;;;8.95;100.00;100107.91;5044373;28;20041;-74
2023/11/09 09:28:09;;;;;;;26.65;10.23;;;;;;;9.01;100.00;100102.63;5041677;28;20040;-70
2023/11/09 09:30:35;;;;;;;27.13;9.70;;;;;;;9.02;100.00;100091.22;5036315;28;20308;-70
2023/11/09 09:33:01;;;;;;;26.45;10.05;;;;;;;8.89;100.00;100098.25;5044272;28;20495;-70
2023/11/09 09:35:28;;;;;;;28.08;10.20;;;;;;;8.86;100.00;100099.13;5042615;28;20066;-69
2023/11/09 09:37:54;;;;;;;25.50;9.60;;;;;;;9.28;100.00;100096.44;5043384;28;20473;-70
2023/11/09 09:40:25;;;;;;;24.65;8.45;;;;;;;9.42;100.00;100094.66;5042750;28;20071;-70
2023/11/09 09:42:52;;;;;;;24.38;8.40;;;;;;;9.80;100.00;100095.41;5042986;28;20369;-70
2023/11/09 09:45:22;;;;;;;24.77;8.55;;;;;;;10.24;100.00;100098.69;5042084;28;20033;-69
2023/11/09 09:47:52;;;;;;;23.75;8.38;;;;;;;10.59;100.00;100094.97;5042291;28;20061;-70
2023/11/09 09:50:26;;;;;;;22.10;7.53;;;;;;;10.69;100.00;100095.75;5043503;28;20079;-70
2023/11/09 09:52:56;;;;;;;24.33;7.30;;;;;;;11.04;100.00;100098.09;5042988;28;20477;-70
2023/11/09 09:55:24;;;;;;;22.13;7.05;;;;;;;11.46;100.00;100093.28;5042795;28;20391;-71
2023/11/09 09:57:53;;;;;;;20.85;6.40;;;;;;;11.59;100.00;100085.16;5042368;28;20112;-71
2023/11/09 10:00:23;;;;;;;21.02;6.30;;;;;;;11.85;100.00;100071.59;5043367;28;20025;-71
2023/11/09 10:02:56;;;;;;;21.25;5.55;;;;;;;12.15;100.00;100062.41;5042199;28;20083;-71
2023/11/09 10:05:27;;;;;;;21.42;5.30;;;;;;;11.98;100.00;100053.81;5042526;28;20379;-70
2023/11/09 10:08:15;;;;;;;20.05;5.85;;;;;;;11.94;100.00;100060.03;5042861;28;20022;-72
2023/11/09 10:10:44;;;;;;;21.83;5.63;;;;;;;12.17;100.00;100055.31;5037987;28;20040;-71
2023/11/09 10:13:10;;;;;;;21.35;5.28;;;;;;;11.97;100.00;100060.91;5044435;28;20025;-70
2023/11/09 10:15:37;;;;;;;21.73;5.55;;;;;;;11.48;100.00;100067.66;5036867;28;20026;-70
2023/11/09 10:18:04;;;;;;;20.58;5.30;;;;;;;11.20;100.00;100059.16;5043810;28;20025;-70
2023/11/09 10:20:32;;;;;;;22.45;5.57;;;;;;;11.21;100.00;100060.88;5041909;28;20064;-70
2023/11/09 10:22:57;;;;;;;20.52;5.53;;;;;;;10.96;100.00;100057.63;5043143;28;20377;-70
2023/11/09 10:25:27;;;;;;;21.98;5.50;;;;;;;10.84;100.00;100057.75;5042204;28;20036;-70
2023/11/09 10:28:00;;;;;;;21.52;5.72;;;;;;;11.49;100.00;100064.13;5042507;28;20472;-70
2023/11/09 10:30:41;;;;;;;22.10;5.68;;;;;;;11.52;100.00;100066.72;5041773;28;20468;-70
2023/11/09 10:33:11;;;;;;;20.40;5.25;;;;;;;11.41;100.00;100063.31;5036640;28;20057;-70
2023/11/09 10:35:38;;;;;;;22.75;5.35;;;;;;;11.20;100.00;100059.16;5036849;28;20516;-70
2023/11/09 10:38:08;;;;;;;22.00;5.72;;;;;;;11.77;100.00;100060.25;5044064;28;20078;-70
2023/11/09 10:40:35;;;;;;;21.48;4.93;;;;;;;11.90;100.00;100055.66;5040877;28;20025;-70
2023/11/09 10:43:00;;;;;;;22.08;5.13;;;;;;;12.37;100.00;100044.41;5043318;28;20468;-70
2023/11/09 10:45:30;;;;;;;22.40;4.88;;;;;;;12.61;100.00;100058.19;5041812;28;20029;-70
2023/11/09 10:47:58;;;;;;;19.98;4.38;;;;;;;12.86;100.00;100045.38;5042887;28;20057;-70
2023/11/09 10:50:26;;;;;;;19.65;4.47;;;;;;;13.38;100.00;100043.53;5041907;28;20028;-70
2023/11/09 10:52:56;;;;;;;19.45;4.43;;;;;;;13.48;100.00;100038.91;5042874;28;20076;-70
2023/11/09 10:55:22;;;;;;;18.55;4.10;;;;;;;12.69;100.00;100036.81;5046466;28;20040;-70
2023/11/09 10:57:49;;;;;;;19.50;4.53;;;;;;;12.58;100.00;100033.47;5045434;28;20029;-70
2023/11/09 11:00:32;;;;;;;21.55;4.93;;;;;;;12.52;100.00;100038.00;5047152;28;20025;-72
2023/11/09 11:03:08;;;;;;;;;;;;;;;12.71;100.00;100040.31;5046987;28;20036;-70
2023/11/09 11:05:40;;;;;;;19.05;3.90;;;;;;;12.72;100.00;100032.31;5044457;28;20418;-70
2023/11/09 11:08:08;;;;;;;18.45;3.75;;;;;;;13.01;100.00;100028.28;5047842;28;20028;-71
2023/11/09 11:10:42;;;;;;;19.00;3.83;;;;;;;13.56;100.00;100023.69;5043031;28;20025;-70
2023/11/09 11:13:10;;;;;;;17.83;3.78;;;;;;;13.32;100.00;100019.72;5040370;28;20088;-71
2023/11/09 11:15:44;;;;;;;18.58;4.30;;;;;;;13.15;100.00;100014.78;5040405;28;20040;-70
2023/11/09 11:18:30;;;;;;;18.13;4.00;;;;;;;13.03;100.00;100015.00;5040837;28;20108;-70